createdAt,value
2022-07-26T00:02:05.149Z,20.84
2022-07-26T00:04:40.378Z,20.78
2022-07-26T00:07:09.106Z,20.75
2022-07-26T00:09:37.780Z,20.72
2022-07-26T00:12:07.025Z,20.70
2022-07-26T00:14:37.602Z,20.65
2022-07-26T00:17:06.781Z,20.61
2022-07-26T00:19:35.979Z,20.59
2022-07-26T00:22:22.287Z,20.57
2022-07-26T00:24:53.091Z,20.54
2022-07-26T00:27:22.212Z,20.51
2022-07-26T00:29:53.160Z,20.48
2022-07-26T00:32:20.760Z,20.47
2022-07-26T00:34:49.128Z,20.46
2022-07-26T00:37:20.582Z,20.44
2022-07-26T00:39:52.019Z,20.41
2022-07-26T00:42:22.219Z,20.39
2022-07-26T00:44:50.840Z,20.38
2022-07-26T00:47:19.945Z,20.37
2022-07-26T00:49:49.287Z,20.34
2022-07-26T00:52:17.317Z,20.32
2022-07-26T00:54:49.447Z,20.29
2022-07-26T00:57:19.473Z,20.27
2022-07-26T00:59:48.658Z,20.26
2022-07-26T01:02:18.481Z,20.25
2022-07-26T01:04:48.222Z,20.23
2022-07-26T01:07:18.347Z,20.23
2022-07-26T01:09:47.903Z,20.23
2022-07-26T01:12:18.802Z,20.25
2022-07-26T01:14:47.451Z,20.23
2022-07-26T01:17:16.607Z,20.21
2022-07-26T01:19:46.147Z,20.20
2022-07-26T01:22:17.387Z,20.18
2022-07-26T01:24:46.817Z,20.18
2022-07-26T01:27:14.676Z,20.15
2022-07-26T01:29:44.776Z,20.11
2022-07-26T01:32:15.117Z,20.09
2022-07-26T01:34:46.830Z,20.09
2022-07-26T01:37:16.133Z,20.11
2022-07-26T01:39:46.114Z,20.12
2022-07-26T01:42:17.387Z,20.12
2022-07-26T01:44:49.540Z,20.13
2022-07-26T01:47:19.152Z,20.14
2022-07-26T01:49:49.811Z,20.16
2022-07-26T01:52:18.505Z,20.15
2022-07-26T01:54:46.627Z,20.15
2022-07-26T01:57:16.808Z,20.16
2022-07-26T01:59:46.162Z,20.17
2022-07-26T02:02:13.906Z,20.15
2022-07-26T02:04:59.235Z,20.15
2022-07-26T02:07:32.788Z,20.15
2022-07-26T02:10:01.585Z,20.13
2022-07-26T02:12:32.795Z,20.12
2022-07-26T02:15:02.487Z,20.13
2022-07-26T02:17:32.485Z,20.17
2022-07-26T02:20:00.666Z,20.18
2022-07-26T02:22:30.563Z,20.17
2022-07-26T02:25:05.015Z,20.17
2022-07-26T02:27:37.612Z,20.17
2022-07-26T02:30:06.423Z,20.18
2022-07-26T02:32:35.504Z,20.19
2022-07-26T02:35:05.227Z,20.23
2022-07-26T02:37:37.564Z,20.26
2022-07-26T02:40:18.846Z,20.26
2022-07-26T02:42:47.011Z,20.24
2022-07-26T02:45:16.214Z,20.23
2022-07-26T02:47:51.905Z,20.23
2022-07-26T02:50:23.105Z,20.22
2022-07-26T02:52:53.661Z,20.21
2022-07-26T02:55:24.587Z,20.17
2022-07-26T02:57:55.040Z,20.15
2022-07-26T03:00:28.936Z,20.14
2022-07-26T03:02:57.706Z,20.15
2022-07-26T03:05:27.158Z,20.16
2022-07-26T03:07:57.019Z,20.16
2022-07-26T03:10:36.255Z,20.13
2022-07-26T03:13:05.910Z,20.15
2022-07-26T03:15:37.155Z,20.17
2022-07-26T03:18:07.431Z,20.17
2022-07-26T03:20:36.475Z,20.17
2022-07-26T03:23:05.711Z,20.18
2022-07-26T03:25:34.052Z,20.18
2022-07-26T03:28:07.667Z,20.19
2022-07-26T03:30:36.041Z,20.20
2022-07-26T03:33:07.000Z,20.21
2022-07-26T03:35:37.064Z,20.23
2022-07-26T03:38:07.357Z,20.23
2022-07-26T03:40:35.719Z,20.21
2022-07-26T03:43:04.252Z,20.23
2022-07-26T03:45:34.056Z,20.27
2022-07-26T03:48:04.035Z,20.33
2022-07-26T03:50:34.203Z,20.36
2022-07-26T03:53:03.373Z,20.38
2022-07-26T03:55:51.698Z,20.41
2022-07-26T03:58:19.814Z,20.43
2022-07-26T04:00:51.170Z,20.44
2022-07-26T04:03:18.945Z,20.44
2022-07-26T04:05:49.248Z,20.43
2022-07-26T04:08:20.560Z,20.45
2022-07-26T04:10:52.492Z,20.49
2022-07-26T04:13:23.695Z,20.54
2022-07-26T04:15:56.793Z,20.58
2022-07-26T04:18:24.899Z,20.63
2022-07-26T04:20:53.386Z,20.69
2022-07-26T04:23:23.468Z,20.75
2022-07-26T04:25:51.755Z,20.85
2022-07-26T04:28:23.097Z,20.89
2022-07-26T04:30:51.698Z,20.95
2022-07-26T04:33:20.966Z,20.99
2022-07-26T04:35:51.608Z,21.07
2022-07-26T04:38:19.745Z,21.13
2022-07-26T04:40:51.328Z,21.17
2022-07-26T04:43:19.407Z,21.24
2022-07-26T04:45:50.391Z,21.33
2022-07-26T04:48:20.876Z,21.35
2022-07-26T04:50:50.168Z,21.38
2022-07-26T04:53:27.002Z,21.41
2022-07-26T04:55:59.889Z,21.47
2022-07-26T04:58:31.218Z,21.54
2022-07-26T05:01:16.498Z,21.60
2022-07-26T05:03:46.016Z,21.59
2022-07-26T05:06:14.931Z,21.59
2022-07-26T05:08:45.145Z,21.64
2022-07-26T05:11:13.169Z,21.71
2022-07-26T05:13:40.694Z,21.79
2022-07-26T05:16:11.569Z,21.89
2022-07-26T05:18:48.930Z,22.03
2022-07-26T05:21:18.427Z,22.20
2022-07-26T05:23:47.865Z,22.30
2022-07-26T05:26:16.259Z,22.36
2022-07-26T05:28:43.859Z,22.47
2022-07-26T05:31:11.571Z,22.62
2022-07-26T05:33:40.269Z,22.74
2022-07-26T05:36:10.978Z,22.82
2022-07-26T05:38:44.407Z,22.93
2022-07-26T05:41:12.377Z,22.99
2022-07-26T05:43:42.408Z,23.05
2022-07-26T05:46:11.913Z,23.04
2022-07-26T05:48:42.201Z,23.03
2022-07-26T05:51:11.176Z,23.02
2022-07-26T05:53:39.900Z,22.93
2022-07-26T05:56:08.831Z,22.87
2022-07-26T05:58:37.291Z,22.82
2022-07-26T06:01:05.385Z,22.77
2022-07-26T06:03:33.154Z,22.68
2022-07-26T06:06:02.725Z,22.65
2022-07-26T06:08:31.081Z,22.68
2022-07-26T06:10:59.796Z,22.75
2022-07-26T06:13:29.362Z,22.79
2022-07-26T06:16:00.245Z,22.77
2022-07-26T06:18:28.730Z,22.77
2022-07-26T06:20:56.709Z,22.79
2022-07-26T06:23:33.872Z,22.77
2022-07-26T06:26:04.097Z,22.71
2022-07-26T06:28:32.444Z,22.66
2022-07-26T06:31:00.291Z,22.60
2022-07-26T06:33:27.998Z,22.60
2022-07-26T06:35:55.642Z,22.66
2022-07-26T06:38:23.276Z,22.64
2022-07-26T06:40:50.784Z,22.59
2022-07-26T06:43:18.381Z,22.58
2022-07-26T06:45:46.442Z,22.63
2022-07-26T06:48:14.199Z,22.72
2022-07-26T06:50:42.773Z,22.80
2022-07-26T06:53:12.055Z,22.91
2022-07-26T06:55:41.384Z,23.02
2022-07-26T06:58:13.224Z,23.18
2022-07-26T07:00:42.410Z,23.43
2022-07-26T07:03:10.589Z,23.76
2022-07-26T07:05:49.723Z,24.10
2022-07-26T07:08:24.747Z,24.57
2022-07-26T07:10:53.633Z,25.01
2022-07-26T07:13:23.039Z,25.29
2022-07-26T07:15:51.948Z,25.49
2022-07-26T07:18:21.224Z,25.70
2022-07-26T07:20:49.839Z,25.84
2022-07-26T07:23:17.825Z,25.98
2022-07-26T07:25:47.327Z,26.25
2022-07-26T07:28:19.186Z,26.55
2022-07-26T07:30:49.443Z,26.83
2022-07-26T07:33:22.657Z,27.17
2022-07-26T07:35:53.074Z,27.57
2022-07-26T07:38:23.733Z,27.93
2022-07-26T07:40:55.036Z,28.29
2022-07-26T07:43:24.602Z,28.25
2022-07-26T07:45:56.998Z,28.15
2022-07-26T07:48:25.595Z,27.94
2022-07-26T07:50:53.666Z,27.77
2022-07-26T07:53:22.976Z,27.65
2022-07-26T07:55:51.177Z,27.41
2022-07-26T07:58:28.477Z,27.10
2022-07-26T08:01:01.290Z,26.78
2022-07-26T08:03:38.699Z,26.50
2022-07-26T08:06:13.895Z,26.34
2022-07-26T08:08:42.049Z,26.19
2022-07-26T08:11:45.816Z,26.10
2022-07-26T08:14:33.565Z,25.97
2022-07-26T08:17:11.286Z,25.89
2022-07-26T08:19:41.927Z,25.84
2022-07-26T08:22:12.347Z,25.70
2022-07-26T08:24:41.144Z,25.61
2022-07-26T08:27:09.106Z,25.50
2022-07-26T08:29:36.856Z,25.39
2022-07-26T08:32:16.095Z,25.28
2022-07-26T08:34:53.761Z,25.20
2022-07-26T08:37:45.151Z,25.11
2022-07-26T08:43:04.110Z,25.24
2022-07-26T08:45:32.333Z,25.34
2022-07-26T08:48:18.358Z,25.64
2022-07-26T08:50:48.679Z,26.18
2022-07-26T08:53:17.256Z,26.49
2022-07-26T08:58:41.106Z,26.55
2022-07-26T09:01:15.127Z,26.72
2022-07-26T09:03:45.441Z,27.04
2022-07-26T09:06:26.327Z,27.17
2022-07-26T09:09:12.881Z,27.13
2022-07-26T09:11:41.248Z,26.89
2022-07-26T09:14:11.577Z,27.04
2022-07-26T09:16:40.208Z,27.52
2022-07-26T09:19:17.396Z,28.11
2022-07-26T09:21:46.332Z,28.17
2022-07-26T09:24:45.611Z,28.34
2022-07-26T09:27:19.478Z,28.52
2022-07-26T09:29:54.323Z,28.48
2022-07-26T09:32:25.405Z,28.19
2022-07-26T09:34:58.897Z,27.90
2022-07-26T09:37:44.080Z,27.58
2022-07-26T09:40:14.840Z,27.22
2022-07-26T09:43:02.223Z,26.76
2022-07-26T09:45:33.634Z,26.53
2022-07-26T09:48:04.538Z,26.25
2022-07-26T09:50:37.183Z,25.85
2022-07-26T09:53:10.184Z,25.53
2022-07-26T09:55:45.282Z,25.13
2022-07-26T09:58:18.222Z,24.72
2022-07-26T10:00:50.792Z,24.45
2022-07-26T10:03:20.450Z,24.39
2022-07-26T10:05:51.949Z,24.41
2022-07-26T10:08:45.703Z,24.41
2022-07-26T10:11:16.287Z,24.34
2022-07-26T10:13:44.284Z,24.17
2022-07-26T10:16:33.274Z,24.04
2022-07-26T10:19:04.722Z,23.86
2022-07-26T10:22:20.347Z,23.78
2022-07-26T10:24:58.420Z,23.76
2022-07-26T10:27:41.922Z,23.62
2022-07-26T10:30:35.649Z,23.61
2022-07-26T10:33:14.003Z,23.71
2022-07-26T10:35:43.197Z,23.80
2022-07-26T10:38:22.183Z,23.96
2022-07-26T10:41:00.101Z,24.04
2022-07-26T10:43:40.690Z,23.98
2022-07-26T10:46:30.738Z,24.16
2022-07-26T10:49:10.279Z,24.38
2022-07-26T10:51:57.980Z,24.66
2022-07-26T10:54:31.123Z,25.08
2022-07-26T10:57:06.381Z,25.26
2022-07-26T10:59:54.934Z,25.41
2022-07-26T11:02:28.539Z,25.39
2022-07-26T11:05:04.393Z,25.12
2022-07-26T11:07:32.767Z,24.90
2022-07-26T11:10:01.484Z,24.73
2022-07-26T11:12:32.743Z,24.53
2022-07-26T11:15:16.898Z,24.50
2022-07-26T11:17:44.625Z,24.38
2022-07-26T11:20:36.304Z,24.32
2022-07-26T11:23:05.218Z,24.27
2022-07-26T11:25:33.592Z,24.23
2022-07-26T11:28:07.395Z,24.14
2022-07-26T11:30:57.324Z,24.04
2022-07-26T11:33:37.694Z,23.92
2022-07-26T11:36:07.756Z,23.83
2022-07-26T11:39:06.320Z,23.81
2022-07-26T11:41:35.189Z,23.72
2022-07-26T11:44:06.504Z,23.65
2022-07-26T11:46:40.750Z,23.64
2022-07-26T11:49:16.250Z,23.62
2022-07-26T11:51:56.662Z,23.58
2022-07-26T11:54:29.666Z,23.49
2022-07-26T11:57:00.814Z,23.36
2022-07-26T11:59:33.825Z,23.29
2022-07-26T12:02:05.207Z,23.23
2022-07-26T12:04:42.456Z,23.15
2022-07-26T12:07:13.052Z,23.00
2022-07-26T12:09:48.034Z,22.88
2022-07-26T12:12:27.124Z,22.97
2022-07-26T12:15:05.554Z,22.98
2022-07-26T12:17:35.782Z,22.97
2022-07-26T12:20:17.447Z,23.02
2022-07-26T12:23:04.869Z,23.04
2022-07-26T12:25:33.718Z,22.91
2022-07-26T12:28:06.594Z,22.81
2022-07-26T12:30:38.240Z,22.93
2022-07-26T12:33:08.735Z,23.10
2022-07-26T12:35:38.749Z,23.24
2022-07-26T12:38:08.821Z,23.29
2022-07-26T12:40:41.662Z,23.32
2022-07-26T12:43:12.013Z,23.33
2022-07-26T12:45:43.429Z,23.36
2022-07-26T12:48:12.459Z,23.49
2022-07-26T12:50:41.152Z,23.57
2022-07-26T12:53:12.746Z,23.61
2022-07-26T12:55:42.609Z,23.51
2022-07-26T12:58:13.876Z,23.42
2022-07-26T13:00:42.031Z,23.34
2022-07-26T13:03:13.101Z,23.33
2022-07-26T13:05:42.344Z,23.37
2022-07-26T13:08:13.416Z,23.40
2022-07-26T13:10:43.338Z,23.42
2022-07-26T13:13:14.235Z,23.37
2022-07-26T13:15:44.682Z,23.14
2022-07-26T13:18:16.037Z,23.09
2022-07-26T13:20:45.748Z,23.05
2022-07-26T13:23:15.973Z,23.09
2022-07-26T13:25:53.163Z,23.02
2022-07-26T13:28:23.580Z,22.98
2022-07-26T13:30:52.933Z,22.96
2022-07-26T13:33:29.007Z,22.92
2022-07-26T13:36:03.264Z,22.95
2022-07-26T13:38:36.401Z,22.95
2022-07-26T13:41:06.044Z,22.94
2022-07-26T13:43:35.206Z,22.89
2022-07-26T13:46:13.804Z,22.92
2022-07-26T13:48:59.941Z,23.08
2022-07-26T13:51:57.753Z,23.19
2022-07-26T13:54:34.043Z,23.30
2022-07-26T13:57:07.489Z,23.30
2022-07-26T13:59:35.338Z,23.34
2022-07-26T14:02:04.620Z,23.27
2022-07-26T14:04:32.646Z,23.30
2022-07-26T14:07:00.880Z,23.38
2022-07-26T14:09:35.646Z,23.48
2022-07-26T14:12:04.183Z,23.60
2022-07-26T14:14:35.002Z,23.62
2022-07-26T14:17:06.887Z,23.67
2022-07-26T14:19:36.649Z,23.73
2022-07-26T14:22:15.404Z,23.76
2022-07-26T14:25:02.607Z,23.85
2022-07-26T14:30:28.611Z,23.97
2022-07-26T14:33:09.532Z,23.98
2022-07-26T14:35:52.059Z,24.04
2022-07-26T14:38:31.815Z,23.93
2022-07-26T14:41:07.914Z,23.82
2022-07-26T14:43:37.184Z,23.84
2022-07-26T14:46:10.502Z,23.82
2022-07-26T14:49:32.653Z,23.80
2022-07-26T14:52:02.449Z,23.82
2022-07-26T14:54:33.491Z,23.82
2022-07-26T14:57:06.533Z,23.89
2022-07-26T14:59:43.071Z,23.87
2022-07-26T15:02:14.320Z,23.88
2022-07-26T15:04:49.535Z,23.87
2022-07-26T15:07:27.114Z,23.84
2022-07-26T15:09:59.803Z,23.82
2022-07-26T15:12:34.016Z,23.84
2022-07-26T15:15:07.393Z,23.84
2022-07-26T15:17:44.756Z,23.90
2022-07-26T15:20:27.240Z,23.97
2022-07-26T15:22:57.441Z,24.06
2022-07-26T15:25:27.399Z,24.07
2022-07-26T15:28:07.829Z,24.01
2022-07-26T15:30:41.772Z,23.94
2022-07-26T15:33:18.044Z,23.85
2022-07-26T15:35:47.360Z,23.80
2022-07-26T15:38:23.803Z,23.77
2022-07-26T15:40:53.564Z,23.83
2022-07-26T15:43:44.141Z,23.88
2022-07-26T15:46:14.318Z,23.87
2022-07-26T15:49:08.062Z,23.74
2022-07-26T15:51:37.861Z,23.66
2022-07-26T15:54:10.042Z,23.64
2022-07-26T15:56:41.582Z,23.71
2022-07-26T15:59:16.840Z,23.75
2022-07-26T16:01:45.214Z,23.70
2022-07-26T16:04:17.604Z,23.66
2022-07-26T16:06:47.761Z,23.69
2022-07-26T16:09:32.671Z,23.69
2022-07-26T16:12:41.309Z,23.70
2022-07-26T16:15:46.415Z,23.67
2022-07-26T16:19:08.086Z,23.63
2022-07-26T16:22:06.145Z,23.61
2022-07-26T16:24:56.211Z,23.65
2022-07-26T16:28:05.642Z,23.59
2022-07-26T16:33:36.613Z,23.55
2022-07-26T16:36:17.565Z,23.53
2022-07-26T16:38:46.968Z,23.49
2022-07-26T16:41:15.986Z,23.44
2022-07-26T16:43:45.509Z,23.42
2022-07-26T16:46:14.881Z,23.44
2022-07-26T16:48:45.863Z,23.47
2022-07-26T16:51:16.723Z,23.53
2022-07-26T16:53:48.204Z,23.54
2022-07-26T16:56:21.640Z,23.50
2022-07-26T16:58:51.042Z,23.44
2022-07-26T17:01:20.728Z,23.41
2022-07-26T17:03:51.032Z,23.35
2022-07-26T17:06:21.137Z,23.31
2022-07-26T17:08:53.111Z,23.32
2022-07-26T17:11:25.649Z,23.28
2022-07-26T17:13:56.799Z,23.18
2022-07-26T17:16:28.266Z,23.15
2022-07-26T17:18:59.452Z,23.16
2022-07-26T17:21:28.543Z,23.09
2022-07-26T17:24:00.518Z,23.00
2022-07-26T17:26:47.553Z,23.00
2022-07-26T17:29:21.824Z,22.96
2022-07-26T17:31:50.995Z,22.92
2022-07-26T17:34:20.732Z,22.89
2022-07-26T17:37:42.854Z,22.88
2022-07-26T17:40:13.177Z,22.87
2022-07-26T17:42:42.153Z,22.86
2022-07-26T17:45:13.266Z,22.84
2022-07-26T17:47:43.269Z,22.84
2022-07-26T17:50:40.335Z,22.82
2022-07-26T17:53:09.162Z,22.79
2022-07-26T17:55:38.032Z,22.76
2022-07-26T17:58:09.352Z,22.70
2022-07-26T18:00:39.700Z,22.71
2022-07-26T18:03:09.838Z,22.67
2022-07-26T18:05:41.384Z,22.61
2022-07-26T18:08:13.123Z,22.60
2022-07-26T18:10:50.594Z,22.61
2022-07-26T18:13:22.301Z,22.60
2022-07-26T18:15:53.922Z,22.56
2022-07-26T18:18:24.995Z,22.53
2022-07-26T18:20:59.671Z,22.50
2022-07-26T18:23:34.002Z,22.51
2022-07-26T18:29:42.009Z,22.61
2022-07-26T18:32:30.310Z,22.65
2022-07-26T18:35:41.724Z,22.65
2022-07-26T18:39:01.021Z,22.57
2022-07-26T18:41:56.850Z,22.52
2022-07-26T18:44:46.628Z,22.36
2022-07-26T18:47:26.268Z,22.22
2022-07-26T18:49:58.455Z,22.07
2022-07-26T18:52:31.927Z,21.91
2022-07-26T18:55:10.987Z,21.74
2022-07-26T18:57:44.206Z,21.64
2022-07-26T19:00:19.625Z,21.57
2022-07-26T19:02:48.377Z,21.51
2022-07-26T19:05:22.960Z,21.50
2022-07-26T19:07:53.746Z,21.52
2022-07-26T19:10:24.687Z,21.58
2022-07-26T19:12:54.367Z,21.60
2022-07-26T19:15:24.701Z,21.62
2022-07-26T19:17:59.256Z,21.60
2022-07-26T19:20:33.914Z,21.59
2022-07-26T19:23:04.552Z,21.56
2022-07-26T19:25:34.556Z,21.53
2022-07-26T19:28:06.219Z,21.50
2022-07-26T19:31:05.662Z,21.39
2022-07-26T19:33:33.665Z,21.20
2022-07-26T19:36:06.170Z,21.03
2022-07-26T19:38:36.661Z,20.86
2022-07-26T19:41:08.299Z,20.71
2022-07-26T19:44:22.879Z,20.58
2022-07-26T19:47:15.740Z,20.43
2022-07-26T19:50:03.836Z,20.27
2022-07-26T19:53:16.182Z,20.14
2022-07-26T19:55:44.340Z,20.00
2022-07-26T19:59:04.442Z,19.88
2022-07-26T20:02:25.103Z,19.90
2022-07-26T20:04:55.629Z,20.00
2022-07-26T20:08:18.846Z,20.04
2022-07-26T20:11:22.429Z,20.20
2022-07-26T20:18:22.540Z,20.29
2022-07-26T20:21:19.195Z,20.34
2022-07-26T20:24:29.193Z,20.34
2022-07-26T20:42:38.415Z,19.92
2022-07-26T20:49:12.335Z,20.02
2022-07-26T21:06:03.467Z,19.81
2022-07-26T21:12:52.373Z,19.72
2022-07-26T21:23:17.344Z,19.47
2022-07-26T21:44:43.780Z,19.42
2022-07-26T21:47:18.246Z,19.30
2022-07-26T21:50:42.568Z,19.30
2022-07-26T21:53:32.099Z,19.23
2022-07-26T21:56:02.226Z,19.20
2022-07-26T21:58:36.798Z,19.14
2022-07-26T22:05:33.173Z,19.00
2022-07-26T22:12:08.022Z,18.77
2022-07-26T22:15:26.990Z,18.67
2022-07-26T22:28:19.296Z,18.68
2022-07-26T22:38:48.184Z,18.75
2022-07-26T22:45:53.428Z,18.66
2022-07-26T23:01:25.530Z,18.78
2022-07-26T23:03:57.016Z,18.75
2022-07-26T23:06:32.025Z,18.70
2022-07-26T23:09:14.925Z,18.71
2022-07-26T23:12:12.483Z,18.69
2022-07-26T23:14:42.596Z,18.63
2022-07-26T23:17:11.637Z,18.51
2022-07-26T23:23:29.089Z,18.45
2022-07-26T23:26:01.870Z,18.44
2022-07-26T23:28:36.693Z,18.43
2022-07-26T23:31:08.994Z,18.48
2022-07-26T23:33:52.408Z,18.45
2022-07-26T23:36:29.473Z,18.41
2022-07-26T23:39:00.971Z,18.40
2022-07-26T23:41:30.987Z,18.42
2022-07-26T23:44:00.295Z,18.40
2022-07-26T23:46:30.184Z,18.37
2022-07-26T23:48:59.951Z,18.40
2022-07-26T23:51:54.102Z,18.40
2022-07-26T23:57:57.304Z,18.38
